ENCN/KRS METAR and TAF weather

Enter ICAO airport designator
Station Type Date Time Source
ENCN METAR 2019/12/13 01:20 UTC NOAA

ENCN 130120Z AUTO 15007KT 9999 FEW017/// SCT023/// BKN049/// 04/02 Q0987


Station Type Date Time Source
ENCN Decoded METAR 2019/12/13 01:20 UTC NOAA

Kristiansand / Kjevik, Norway (ENCN) 58-12N 008-05E 17M
Dec 12, 2019 - 08:20 PM EST / 2019.12.13 0120 UTC
Wind: from the SSE (150 degrees) at 8 MPH (7 KT):0
Visibility: greater than 7 mile(s):0
Sky conditions: mostly cloudy
Temperature: 39 F (4 C)
Dew Point: 35 F (2 C)
Relative Humidity: 86%
Pressure (altimeter): 29.15 in. Hg (0987 hPa)
ob: ENCN 130120Z AUTO 15007KT 9999 FEW017/// SCT023/// BKN049/// 04/02 Q0987
cycle: 1

Station Type Date Time Source
ENCN TAF 2016/05/06 12:39 UTC NOAA

TAF TAF ENCN 061100Z 0612/0712 14008KT 9999 FEW040

Example: see airport list